Time;durP1;ratioP1;P1;durP2;ratioP2;P2;SDS_P1;SDS_P2;PMS_P1;PMS_P2;Temp;Humidity;BMP_temperature;BMP_pressure;BME280_temperature;BME280_humidity;BME280_pressure;Samples;Min_cycle;Max_cycle;Signal;HPM_P1;HPM_P2
2022/01/12 00:00:45;;;;;;;12.60;6.43;;;;;;;2.69;80.69;100364.47;5009226;28;20025;-68
2022/01/12 00:03:11;;;;;;;15.13;5.18;;;;;;;2.80;80.25;100368.41;5005648;28;20033;-68
2022/01/12 00:05:36;;;;;;;10.68;5.40;;;;;;;2.70;80.71;100361.06;5005651;28;20259;-68
2022/01/12 00:08:01;;;;;;;14.13;6.43;;;;;;;2.74;80.12;100351.66;5005671;28;20026;-68
2022/01/12 00:10:27;;;;;;;15.38;6.35;;;;;;;2.58;81.33;100355.41;5005661;28;20034;-68
2022/01/12 00:12:52;;;;;;;14.00;6.53;;;;;;;2.51;81.35;100348.19;5005579;28;20253;-68
2022/01/12 00:15:18;;;;;;;16.80;5.72;;;;;;;2.51;81.97;100348.19;5005548;28;20085;-68
2022/01/12 00:17:44;;;;;;;16.55;7.65;;;;;;;2.43;81.62;100344.38;5005669;28;20274;-68
2022/01/12 00:20:09;;;;;;;12.45;4.88;;;;;;;2.30;82.28;100339.53;5005475;28;20026;-68
2022/01/12 00:22:37;;;;;;;16.27;6.68;;;;;;;2.17;82.68;100345.06;5005412;28;20072;-68
2022/01/12 00:25:22;;;;;;;17.02;6.03;;;;;;;2.22;82.99;100343.53;5005440;28;20030;-68
2022/01/12 00:33:16;;;;;;;15.73;7.10;;;;;;;1.94;83.93;100333.75;5018199;28;20025;-68
2022/01/12 00:35:43;;;;;;;16.45;7.70;;;;;;;1.93;83.77;100328.47;5014202;28;20318;-68
2022/01/12 00:38:09;;;;;;;18.13;7.70;;;;;;;1.87;84.26;100323.03;5010411;28;20081;-68
2022/01/12 00:40:44;;;;;;;11.15;6.40;;;;;;;1.73;85.33;100329.34;5021145;28;20077;-68
2022/01/12 00:43:11;;;;;;;12.73;6.85;;;;;;;1.71;85.32;100338.78;5009988;28;20026;-68
2022/01/12 00:45:41;;;;;;;11.98;6.07;;;;;;;1.59;86.53;100346.03;5016511;28;20259;-68
2022/01/12 00:48:07;;;;;;;18.50;6.07;;;;;;;1.45;87.22;100339.34;5016252;28;20018;-68
2022/01/12 00:50:32;;;;;;;10.85;5.43;;;;;;;1.32;88.10;100340.53;5014037;28;20187;-68
2022/01/12 00:52:58;;;;;;;14.35;6.70;;;;;;;1.14;88.64;100349.22;5013073;28;20273;-68
2022/01/12 00:55:23;;;;;;;11.88;6.18;;;;;;;1.01;89.70;100346.91;5014326;28;20313;-68
2022/01/12 00:57:50;;;;;;;15.68;7.55;;;;;;;0.89;90.19;100356.69;5015015;28;20335;-68
2022/01/12 01:00:16;;;;;;;13.10;5.68;;;;;;;0.75;90.82;100348.28;5014018;28;20317;-68
2022/01/12 01:02:41;;;;;;;12.02;7.00;;;;;;;0.65;91.43;100350.38;5014812;28;20018;-68
2022/01/12 01:05:07;;;;;;;13.45;6.35;;;;;;;0.60;92.28;100359.66;5010322;28;20026;-68
2022/01/12 01:07:32;;;;;;;11.90;5.93;;;;;;;0.57;92.65;100377.66;5016173;28;20029;-68
2022/01/12 01:10:05;;;;;;;13.35;6.25;;;;;;;0.51;93.27;100377.34;5014395;28;20033;-68
2022/01/12 01:12:33;;;;;;;11.77;6.20;;;;;;;0.43;93.31;100378.66;5016925;28;20026;-68
2022/01/12 01:26:06;;;;;;;14.75;6.20;;;;;;;-0.27;93.26;100390.75;4966313;28;20070;-68
2022/01/12 01:28:31;;;;;;;13.10;6.47;;;;;;;-0.43;93.85;100393.34;4994558;28;20388;-68
2022/01/12 01:30:57;;;;;;;15.63;7.07;;;;;;;-0.33;94.41;100393.00;5020704;28;20210;-68
2022/01/12 01:33:22;;;;;;;28.77;15.10;;;;;;;-0.26;95.26;100381.25;5017936;28;20028;-68
2022/01/12 01:35:54;;;;;;;14.15;6.88;;;;;;;-0.29;95.70;100375.94;5008481;28;20025;-68
2022/01/12 01:38:19;;;;;;;16.30;7.77;;;;;;;-0.26;95.23;100371.81;5020703;28;20085;-68
2022/01/12 01:40:45;;;;;;;18.50;8.73;;;;;;;-0.26;95.58;100371.81;5020571;28;20333;-68
2022/01/12 01:54:09;;;;;;;16.70;7.13;;;;;;;-0.52;96.25;100372.19;5018133;28;20025;-68
2022/01/12 01:56:34;;;;;;;19.00;8.57;;;;;;;-0.58;96.30;100374.44;5010389;28;20029;-68
2022/01/12 01:59:00;;;;;;;16.50;7.20;;;;;;;-0.64;96.35;100376.72;5018843;28;20065;-68
2022/01/12 02:01:25;;;;;;;20.90;8.57;;;;;;;-0.67;96.70;100365.31;5019260;28;20021;-68
2022/01/12 02:03:53;;;;;;;15.75;7.28;;;;;;;-0.73;97.16;100365.88;5012009;28;20069;-68
2022/01/12 02:06:19;;;;;;;16.40;7.72;;;;;;;-0.75;96.76;100372.69;5006387;28;20029;-68
2022/01/12 02:08:45;;;;;;;16.52;6.65;;;;;;;-0.86;97.13;100373.81;5018914;28;20026;-68
2022/01/12 02:11:10;;;;;;;13.48;7.95;;;;;;;-0.85;96.97;100378.16;5017556;28;20018;-68
2022/01/12 02:13:36;;;;;;;30.05;8.65;;;;;;;-0.84;96.79;100376.47;5006403;28;20014;-68
2022/01/12 02:16:02;;;;;;;13.50;6.90;;;;;;;-0.95;96.52;100375.91;5015570;28;20068;-68
2022/01/12 02:40:17;;;;;;;12.60;6.57;;;;;;;-1.28;96.78;100397.34;5023553;28;20063;-68
2022/01/12 02:42:45;;;;;;;14.18;6.85;;;;;;;-1.28;96.55;100407.69;5014443;28;20041;-68
2022/01/12 02:51:09;;;;;;;10.10;6.15;;;;;;;-1.54;96.33;100405.34;5022789;28;20025;-68
2022/01/12 02:53:40;;;;;;;14.02;6.97;;;;;;;-1.51;97.77;100402.03;5012635;28;20026;-68
2022/01/12 02:56:10;;;;;;;14.68;7.95;;;;;;;-1.47;98.11;100391.06;5019034;28;20314;-68
2022/01/12 02:58:36;;;;;;;16.05;8.00;;;;;;;-1.35;98.63;100395.25;5012214;28;20022;-68
2022/01/12 03:03:32;;;;;;;17.13;7.97;;;;;;;-1.39;97.74;100388.09;5018587;28;20133;-68
2022/01/12 03:06:01;;;;;;;16.67;7.32;;;;;;;-1.52;98.10;100380.50;5010345;28;20022;-68
2022/01/12 03:08:28;;;;;;;12.38;6.28;;;;;;;-1.49;98.19;100379.78;5016480;28;20256;-68
2022/01/12 03:10:54;;;;;;;18.83;7.70;;;;;;;-1.49;98.07;100365.16;5015282;28;20026;-68
2022/01/12 03:13:21;;;;;;;15.70;6.57;;;;;;;-1.54;97.88;100366.63;5009757;28;20206;-68
2022/01/12 03:15:48;;;;;;;18.40;6.03;;;;;;;-1.61;98.00;100369.69;5021487;28;20018;-68
2022/01/12 03:18:16;;;;;;;10.10;6.38;;;;;;;-1.61;98.02;100373.94;5016500;28;20068;-68
2022/01/12 03:20:43;;;;;;;15.40;7.15;;;;;;;-1.67;97.99;100379.66;5017902;28;20041;-68
2022/01/12 03:23:08;;;;;;;13.35;7.00;;;;;;;-1.60;97.83;100370.53;5008911;28;20065;-68
2022/01/12 03:25:33;;;;;;;14.20;6.07;;;;;;;-1.69;97.24;100380.34;5009578;28;20034;-68
2022/01/12 03:28:01;;;;;;;14.45;7.25;;;;;;;-1.82;96.94;100394.28;5008827;28;20041;-68
2022/01/12 03:30:34;;;;;;;15.60;6.70;;;;;;;-1.79;97.10;100402.19;5020742;28;20092;-68
2022/01/12 03:36:01;;;;;;;9.88;5.22;;;;;;;-1.91;97.87;100419.53;5009893;28;20100;-68
2022/01/12 03:38:26;;;;;;;15.27;7.22;;;;;;;-1.98;97.99;100430.31;5024751;28;20021;-68
2022/01/12 03:40:52;;;;;;;19.38;6.90;;;;;;;-1.98;97.96;100427.75;5012385;28;20017;-68
2022/01/12 03:43:18;;;;;;;16.90;7.82;;;;;;;-2.13;97.36;100420.81;5022431;28;20017;-68
2022/01/12 03:45:46;;;;;;;21.83;8.27;;;;;;;-1.99;97.89;100405.34;5020953;28;20017;-68
2022/01/12 03:48:12;;;;;;;13.65;7.15;;;;;;;-2.10;98.20;100393.50;5022543;28;20025;-68
2022/01/12 03:50:38;;;;;;;18.27;8.27;;;;;;;-2.01;99.19;100396.59;5012662;28;20025;-68
2022/01/12 03:53:03;;;;;;;14.50;7.75;;;;;;;-1.87;99.96;100400.84;5021326;28;20025;-68
2022/01/12 03:55:29;;;;;;;8.98;5.55;;;;;;;-1.82;100.00;100394.28;5011559;28;20018;-68
2022/01/12 03:57:54;;;;;;;13.50;6.60;;;;;;;-1.82;100.00;100403.69;5018194;28;20359;-68
2022/01/12 04:00:20;;;;;;;12.13;6.20;;;;;;;-1.84;100.00;100407.91;5016504;28;20303;-68
2022/01/12 04:02:45;;;;;;;15.15;7.03;;;;;;;-1.83;100.00;100417.41;5015036;28;20048;-68
2022/01/12 04:10:20;;;;;;;14.02;6.53;;;;;;;-1.94;99.55;100445.16;5016315;28;20068;-68
2022/01/12 04:12:46;;;;;;;17.23;7.90;;;;;;;-1.91;98.75;100455.66;5015362;28;20053;-68
2022/01/12 04:15:11;;;;;;;15.73;7.30;;;;;;;-1.92;98.84;100455.59;5013930;28;20033;-68
2022/01/12 04:17:37;;;;;;;16.80;6.10;;;;;;;-1.92;98.09;100468.47;5007985;28;20034;-68
2022/01/12 04:20:03;;;;;;;11.75;6.13;;;;;;;-2.21;97.47;100459.03;5016757;28;20025;-68
2022/01/12 04:25:13;;;;;;;12.02;5.78;;;;;;;-2.21;98.55;100459.91;5013732;28;20209;-68
2022/01/12 04:27:39;;;;;;;17.13;6.60;;;;;;;-2.29;98.44;100450.84;5013310;28;20105;-68
2022/01/12 04:30:06;;;;;;;16.88;7.10;;;;;;;-2.18;98.86;100460.91;5017793;28;20021;-68
2022/01/12 04:32:35;;;;;;;11.13;6.72;;;;;;;-2.15;99.53;100459.41;5008642;28;20085;-68
2022/01/12 04:35:01;;;;;;;22.13;8.40;;;;;;;-2.14;99.83;100461.19;5017034;28;20245;-68
2022/01/12 04:37:26;;;;;;;16.00;7.53;;;;;;;-2.21;99.80;100453.88;5014516;28;20022;-68
2022/01/12 04:39:52;;;;;;;21.88;10.80;;;;;;;-2.13;100.00;100457.78;5015995;28;20056;-68
2022/01/12 04:42:17;;;;;;;15.13;7.00;;;;;;;-2.14;100.00;100466.34;5021581;28;20025;-68
2022/01/12 04:44:45;;;;;;;17.83;7.13;;;;;;;-2.17;100.00;100467.84;5011455;28;20060;-68
2022/01/12 04:47:27;;;;;;;18.42;7.75;;;;;;;-2.21;100.00;100459.03;5014472;28;20018;-68
2022/01/12 04:49:52;;;;;;;14.60;7.32;;;;;;;-2.19;100.00;100462.59;5007742;28;20230;-68
2022/01/12 04:52:17;;;;;;;20.63;8.23;;;;;;;-2.19;100.00;100462.59;5008357;28;20073;-68
2022/01/12 04:54:43;;;;;;;28.40;7.43;;;;;;;-2.21;100.00;100469.38;5013384;28;20025;-68
2022/01/12 04:57:09;;;;;;;14.02;6.55;;;;;;;-2.31;99.81;100467.91;5019838;28;20033;-68
2022/01/12 04:59:39;;;;;;;14.32;6.85;;;;;;;-2.23;100.00;100468.38;5009705;28;20025;-68
2022/01/12 05:06:22;;;;;;;10.48;5.57;;;;;;;-2.22;100.00;100473.63;5015956;28;20022;-68
2022/01/12 05:07:44;;;;;;;16.80;7.30;;;;;;;-2.32;100.00;100472.97;5007022;28;20029;-68
2022/01/12 05:12:56;;;;;;;13.63;7.45;;;;;;;-2.39;99.52;100494.03;5015503;28;20053;-68
2022/01/12 05:15:27;;;;;;;13.38;6.65;;;;;;;-2.37;99.16;100488.16;5017848;28;20087;-68
2022/01/12 05:17:53;;;;;;;15.20;6.73;;;;;;;-2.32;98.91;100483.28;5020279;28;20244;-68
2022/01/12 05:20:20;;;;;;;15.43;6.70;;;;;;;-2.25;98.82;100472.53;5007604;28;20341;-68
2022/01/12 05:22:46;;;;;;;15.90;6.47;;;;;;;-2.42;98.61;100470.63;5003192;28;20025;-68
2022/01/12 05:25:11;;;;;;;12.20;6.75;;;;;;;-2.51;98.83;100470.09;5005538;28;20029;-68
2022/01/12 05:27:37;;;;;;;18.00;7.93;;;;;;;-2.52;98.90;100471.78;5016526;28;20051;-68
2022/01/12 05:30:03;;;;;;;11.20;5.63;;;;;;;-2.52;98.63;100476.03;5003549;28;20030;-68
2022/01/12 05:32:28;;;;;;;12.77;6.15;;;;;;;-2.52;98.71;100470.88;5003497;28;20046;-68
2022/01/12 05:34:58;;;;;;;10.18;5.70;;;;;;;-2.44;98.83;100474.81;5008943;28;20037;-67
2022/01/12 05:37:24;;;;;;;15.18;6.50;;;;;;;-2.40;98.43;100481.94;5004761;28;20060;-66
2022/01/12 05:39:49;;;;;;;15.13;6.28;;;;;;;-2.55;97.83;100475.84;5004744;28;20019;-66
2022/01/12 05:42:15;;;;;;;20.70;6.60;;;;;;;-2.76;98.30;100480.59;5004439;28;20069;-66
2022/01/12 05:44:42;;;;;;;9.10;4.07;;;;;;;-2.70;98.30;100474.91;5004356;28;20030;-66
2022/01/12 05:47:17;;;;;;;10.23;5.90;;;;;;;-2.80;98.90;100467.41;5004686;28;20333;-66
2022/01/12 05:49:44;;;;;;;19.30;7.78;;;;;;;-2.67;99.83;100462.22;5004374;28;20030;-66
2022/01/12 05:52:10;;;;;;;15.77;8.05;;;;;;;-2.58;100.00;100460.19;5004322;28;20221;-66
2022/01/12 05:54:35;;;;;;;21.13;7.50;;;;;;;-2.54;100.00;100462.16;5004320;28;20082;-66
2022/01/12 05:57:01;;;;;;;14.98;5.30;;;;;;;-2.61;99.34;100452.28;5004250;28;20085;-66
2022/01/12 05:59:26;;;;;;;16.05;6.57;;;;;;;-2.52;98.86;100445.09;5004926;28;20110;-66
2022/01/12 06:01:51;;;;;;;12.45;5.25;;;;;;;-2.52;98.23;100439.94;5008188;28;20030;-66
2022/01/12 06:04:17;;;;;;;15.48;6.82;;;;;;;-2.61;98.11;100445.44;5008031;28;20318;-66
2022/01/12 06:06:42;;;;;;;14.98;6.00;;;;;;;-2.59;98.10;100442.97;5008135;28;20030;-66
2022/01/12 06:09:08;;;;;;;9.32;5.72;;;;;;;-2.67;98.05;100444.19;5007940;28;20096;-66
2022/01/12 06:11:33;;;;;;;11.82;5.60;;;;;;;-2.71;98.28;100448.28;5007997;28;20034;-66
2022/01/12 06:13:59;;;;;;;10.18;5.20;;;;;;;-2.64;98.09;100444.34;5007990;28;20006;-66
2022/01/12 06:16:27;;;;;;;10.63;5.60;;;;;;;-2.62;98.37;100453.09;5007922;28;20073;-66
2022/01/12 06:18:53;;;;;;;13.88;7.13;;;;;;;-2.60;98.24;100462.69;5008075;28;20085;-66
2022/01/12 06:21:18;;;;;;;15.73;6.15;;;;;;;-2.67;97.92;100469.94;5007876;28;20033;-66
2022/01/12 06:23:44;;;;;;;19.23;5.68;;;;;;;-2.61;98.22;100475.47;5007626;28;20046;-66
2022/01/12 06:26:09;;;;;;;15.52;5.88;;;;;;;-2.73;97.72;100472.13;5007623;28;20058;-66
2022/01/12 06:28:36;;;;;;;14.98;6.93;;;;;;;-2.78;97.74;100479.59;5007914;28;20077;-66
2022/01/12 06:31:10;;;;;;;12.75;6.13;;;;;;;-2.93;97.16;100490.63;5007992;28;20097;-66
2022/01/12 06:33:37;;;;;;;14.77;6.10;;;;;;;-2.99;96.99;100490.25;5006388;28;20030;-66
2022/01/12 06:36:03;;;;;;;14.10;5.10;;;;;;;-3.08;97.64;100495.72;5007120;28;20253;-66
2022/01/12 06:38:28;;;;;;;11.30;6.43;;;;;;;-3.01;98.66;100509.88;5007573;28;20033;-66
2022/01/12 06:40:54;;;;;;;14.40;7.68;;;;;;;-2.83;99.63;100503.28;5007466;28;20089;-66
2022/01/12 06:43:19;;;;;;;17.55;8.43;;;;;;;-2.68;99.91;100509.41;5007518;28;20195;-66
2022/01/12 06:45:45;;;;;;;12.75;6.63;;;;;;;-2.60;99.82;100510.75;5007322;28;20029;-66
2022/01/12 06:48:10;;;;;;;11.10;5.63;;;;;;;-2.64;99.68;100508.78;5007330;28;20026;-66
2022/01/12 06:50:36;;;;;;;11.32;5.53;;;;;;;-2.64;99.55;100522.59;5007439;28;20068;-66
2022/01/12 06:53:01;;;;;;;15.68;6.60;;;;;;;-2.65;99.07;100523.34;5007236;28;20042;-66
2022/01/12 06:55:27;;;;;;;13.07;6.53;;;;;;;-2.68;99.07;100517.13;5007231;28;20029;-66
2022/01/12 06:57:52;;;;;;;11.75;6.80;;;;;;;-2.74;98.81;100520.22;5007141;28;20038;-66
2022/01/12 07:00:18;;;;;;;11.85;6.15;;;;;;;-2.79;98.64;100531.03;5007137;28;20045;-66
2022/01/12 07:02:43;;;;;;;12.38;6.00;;;;;;;-2.74;98.33;100529.63;5007317;28;20388;-66
2022/01/12 07:05:09;;;;;;;15.55;7.05;;;;;;;-2.83;97.43;100529.06;5006961;28;20022;-66
2022/01/12 07:07:34;;;;;;;14.40;7.68;;;;;;;-2.84;98.64;100535.00;5007041;28;20034;-66
2022/01/12 07:10:00;;;;;;;14.38;6.85;;;;;;;-2.83;98.09;100534.22;5006895;28;20060;-66
2022/01/12 07:12:26;;;;;;;13.02;6.65;;;;;;;-2.91;98.11;100526.00;5006047;28;20090;-66
2022/01/12 07:14:51;;;;;;;12.40;6.70;;;;;;;-2.84;98.47;100529.88;5006931;28;20025;-66
2022/01/12 07:17:17;;;;;;;11.90;6.00;;;;;;;-2.81;98.48;100537.78;5005792;28;20023;-66
2022/01/12 07:19:42;;;;;;;12.57;6.63;;;;;;;-2.82;98.14;100525.66;5006100;28;20023;-66
2022/01/12 07:22:07;;;;;;;12.70;6.35;;;;;;;-2.77;97.84;100534.59;5005769;28;20018;-66
2022/01/12 07:24:33;;;;;;;12.60;6.45;;;;;;;-2.84;97.34;100532.44;5005625;28;20019;-66
2022/01/12 07:26:58;;;;;;;11.90;5.88;;;;;;;-2.76;97.35;100528.63;5005580;28;20052;-66
2022/01/12 07:29:24;;;;;;;16.20;6.65;;;;;;;-2.73;96.99;100532.31;5005628;28;20026;-66
2022/01/12 07:31:49;;;;;;;11.40;5.60;;;;;;;-2.70;96.97;100531.59;5005178;28;20034;-66
2022/01/12 07:34:15;;;;;;;12.13;6.13;;;;;;;-2.82;96.85;100548.88;5005524;28;20026;-66
2022/01/12 07:36:42;;;;;;;13.60;6.03;;;;;;;-2.76;97.39;100551.84;5005535;28;20053;-66
2022/01/12 07:39:07;;;;;;;13.25;7.82;;;;;;;-2.63;97.31;100550.13;5005456;28;20026;-66
2022/01/12 07:41:33;;;;;;;12.43;6.13;;;;;;;-2.72;96.99;100553.84;5005849;28;20093;-66
2022/01/12 07:43:58;;;;;;;15.23;5.82;;;;;;;-2.90;96.28;100563.88;5009646;28;20033;-66
2022/01/12 07:46:24;;;;;;;17.00;6.00;;;;;;;-2.82;95.59;100582.34;5026862;28;20022;-66
2022/01/12 07:48:49;;;;;;;12.18;6.45;;;;;;;-2.76;96.42;100593.97;5027458;28;20060;-66
2022/01/12 07:51:15;;;;;;;11.95;5.38;;;;;;;-2.68;97.31;100612.50;5044408;28;20021;-66
2022/01/12 07:53:40;;;;;;;14.93;5.65;;;;;;;-2.57;97.57;100616.63;5043793;28;20025;-66
2022/01/12 07:56:06;;;;;;;16.23;6.88;;;;;;;-2.69;96.90;100615.88;5043624;28;20029;-66
2022/01/12 07:58:31;;;;;;;10.65;6.03;;;;;;;-2.64;97.37;100606.72;5045297;28;20340;-66
2022/01/12 08:00:57;;;;;;;19.80;8.60;;;;;;;-2.63;97.32;100600.78;5045293;28;20026;-66
2022/01/12 08:03:22;;;;;;;21.45;8.13;;;;;;;-2.56;98.19;100602.97;5045599;28;20049;-66
2022/01/12 08:05:49;;;;;;;13.93;6.00;;;;;;;-2.45;98.80;100612.25;5045065;28;20025;-66
2022/01/12 08:08:15;;;;;;;30.48;13.40;;;;;;;-2.54;98.23;100627.13;5045518;28;20091;-66
2022/01/12 08:10:40;;;;;;;22.05;11.93;;;;;;;-2.51;97.99;100611.88;5045207;28;20216;-66
2022/01/12 08:13:06;;;;;;;23.13;9.70;;;;;;;-2.47;98.25;100614.72;5045159;28;20081;-66
2022/01/12 08:15:31;;;;;;;29.88;14.02;;;;;;;-2.39;97.71;100628.13;5045099;28;20021;-66
2022/01/12 08:17:58;;;;;;;39.42;15.60;;;;;;;-2.48;97.52;100632.69;5045066;28;20040;-66
2022/01/12 08:20:27;;;;;;;26.20;14.30;;;;;;;-2.37;98.09;100642.00;5045017;28;20332;-66
2022/01/12 08:22:52;;;;;;;16.48;9.65;;;;;;;-2.32;98.33;100643.16;5044944;28;20021;-66
2022/01/12 08:25:18;;;;;;;23.10;9.65;;;;;;;-2.22;98.43;100637.78;5044816;28;20025;-66
2022/01/12 08:27:44;;;;;;;18.30;8.65;;;;;;;-2.19;98.65;100648.28;5044647;28;20175;-66
2022/01/12 08:30:16;;;;;;;25.73;12.95;;;;;;;-2.27;98.18;100650.38;5044898;28;20340;-66
2022/01/12 08:32:46;;;;;;;40.50;17.17;;;;;;;-2.05;97.32;100652.63;5045045;28;20351;-66
2022/01/12 08:35:12;;;;;;;140.75;40.15;;;;;;;-1.43;96.74;100659.91;5044811;28;20098;-66
2022/01/12 08:37:39;;;;;;;105.63;30.65;;;;;;;-0.26;93.91;100674.53;5044975;28;20091;-66
2022/01/12 08:40:05;;;;;;;67.22;22.77;;;;;;;0.61;90.22;100659.38;5044687;28;20092;-66
2022/01/12 08:42:30;;;;;;;71.60;23.98;;;;;;;0.97;86.51;100658.66;5044570;28;20346;-66
2022/01/12 08:44:59;;;;;;;38.35;15.18;;;;;;;1.26;87.17;100641.13;5044458;28;20025;-66
2022/01/12 08:47:28;;;;;;;84.47;30.58;;;;;;;1.75;83.19;100644.41;5044774;28;20186;-66
2022/01/12 08:49:53;;;;;;;76.38;29.17;;;;;;;2.22;81.87;100650.09;5044399;28;20040;-66
2022/01/12 08:52:22;;;;;;;36.67;14.57;;;;;;;2.25;81.94;100645.91;5044399;28;20029;-66
2022/01/12 08:54:47;;;;;;;23.52;9.13;;;;;;;2.53;81.53;100640.22;5044343;28;20059;-66
2022/01/12 08:57:12;;;;;;;27.35;11.95;;;;;;;2.91;80.58;100639.28;5044325;28;20025;-66
2022/01/12 08:59:38;;;;;;;36.33;12.60;;;;;;;2.82;79.15;100636.28;5044249;28;20376;-66
2022/01/12 09:02:03;;;;;;;18.88;7.88;;;;;;;2.70;79.73;100628.88;5044297;28;20025;-66
2022/01/12 09:04:29;;;;;;;30.30;13.75;;;;;;;2.78;78.73;100630.06;5044141;28;20025;-66
2022/01/12 09:06:55;;;;;;;29.20;13.00;;;;;;;3.36;77.24;100636.88;5044131;28;20031;-66
2022/01/12 09:09:22;;;;;;;44.47;17.73;;;;;;;3.83;76.05;100644.88;5044164;28;20328;-66
2022/01/12 09:11:47;;;;;;;35.28;15.45;;;;;;;4.80;75.05;100653.72;5044307;28;20025;-66
2022/01/12 09:14:13;;;;;;;25.65;12.75;;;;;;;5.31;74.15;100652.94;5044140;28;20317;-66
2022/01/12 09:16:38;;;;;;;29.98;11.52;;;;;;;5.43;71.10;100650.69;5044019;28;20029;-66
2022/01/12 09:19:04;;;;;;;21.83;10.88;;;;;;;5.30;71.46;100651.13;5044002;28;20093;-66
2022/01/12 09:21:30;;;;;;;24.95;10.55;;;;;;;5.42;71.23;100643.72;5043985;28;20025;-66
2022/01/12 09:23:55;;;;;;;23.70;9.95;;;;;;;5.53;70.89;100650.16;5044067;28;20383;-66
2022/01/12 09:26:21;;;;;;;25.38;10.18;;;;;;;6.10;69.70;100659.88;5043847;28;20034;-66
2022/01/12 09:28:48;;;;;;;20.75;10.07;;;;;;;5.98;69.52;100667.38;5043930;28;20095;-66
2022/01/12 09:31:14;;;;;;;21.20;9.65;;;;;;;6.47;68.68;100675.81;5043895;28;20036;-66
2022/01/12 09:33:39;;;;;;;63.72;22.63;;;;;;;6.20;69.24;100677.59;5043977;28;20084;-66
2022/01/12 09:36:05;;;;;;;21.10;9.68;;;;;;;5.86;69.17;100677.44;5050427;28;20021;-66
2022/01/12 09:38:30;;;;;;;17.10;8.27;;;;;;;6.41;67.97;100683.50;5050510;28;20033;-66
2022/01/12 09:40:56;;;;;;;21.45;8.82;;;;;;;6.34;66.53;100681.53;5050458;28;20067;-66
2022/01/12 09:43:28;;;;;;;18.10;8.68;;;;;;;6.55;67.38;100687.38;5050479;28;20033;-67
2022/01/12 09:45:54;;;;;;;19.30;9.38;;;;;;;6.58;66.43;100682.25;5050373;28;20221;-67
2022/01/12 09:48:23;;;;;;;18.60;7.45;;;;;;;5.85;67.91;100680.84;5050396;28;20089;-67
2022/01/12 09:50:51;;;;;;;23.10;10.18;;;;;;;5.35;69.10;100673.94;5050468;28;20025;-67
2022/01/12 09:53:16;;;;;;;30.13;11.15;;;;;;;5.26;70.28;100678.00;5050380;28;20033;-67
2022/01/12 09:55:42;;;;;;;23.27;8.63;;;;;;;4.69;70.32;100668.13;5050446;28;20430;-67
2022/01/12 09:58:07;;;;;;;17.52;8.63;;;;;;;4.00;72.86;100664.66;5050366;28;20035;-67
2022/01/12 10:00:33;;;;;;;17.23;7.55;;;;;;;3.47;75.24;100664.25;5050359;28;20088;-66
2022/01/12 10:03:08;;;;;;;17.83;7.93;;;;;;;3.38;75.18;100663.84;5050547;28;20296;-66
2022/01/12 10:05:33;;;;;;;18.85;6.97;;;;;;;3.43;75.57;100672.75;5050459;28;20028;-66
2022/01/12 10:08:13;;;;;;;17.23;6.32;;;;;;;3.54;74.97;100660.19;5050179;28;20033;-66
2022/01/12 10:11:00;;;;;;;14.27;6.28;;;;;;;3.57;75.19;100658.56;5050130;28;20047;-66
2022/01/12 10:13:25;;;;;;;12.95;6.25;;;;;;;3.29;75.25;100673.88;5050191;28;20032;-66
2022/01/12 10:15:52;;;;;;;17.73;7.68;;;;;;;2.97;76.27;100671.63;5050134;28;20025;-66
2022/01/12 10:18:19;;;;;;;14.25;6.68;;;;;;;3.14;77.23;100683.66;5050081;28;20025;-66
2022/01/12 10:20:46;;;;;;;13.80;7.00;;;;;;;3.17;78.70;100681.19;5050040;28;20059;-66
2022/01/12 10:23:15;;;;;;;12.65;6.13;;;;;;;2.89;78.34;100680.84;5050062;28;20025;-66
2022/01/12 10:25:44;;;;;;;17.95;7.00;;;;;;;3.03;78.95;100692.72;5049732;28;20049;-66
2022/01/12 10:28:15;;;;;;;13.85;6.22;;;;;;;3.02;79.30;100690.94;5050147;28;20029;-66
2022/01/12 10:31:02;;;;;;;14.30;6.67;;;;;;;2.84;77.89;100697.94;5050110;28;20029;-66
2022/01/12 10:33:33;;;;;;;12.07;5.88;;;;;;;3.16;77.39;100697.63;5050007;28;20029;-66
2022/01/12 10:36:06;;;;;;;14.53;7.20;;;;;;;3.03;77.03;100695.31;5050213;28;20028;-66
2022/01/12 10:38:32;;;;;;;13.20;6.63;;;;;;;2.86;77.31;100706.72;5049935;28;20085;-66
2022/01/12 10:41:01;;;;;;;12.55;5.43;;;;;;;3.02;77.04;100708.25;5049869;28;20032;-66
2022/01/12 10:43:44;;;;;;;18.92;7.38;;;;;;;3.07;76.82;100707.63;5050098;28;20048;-66
2022/01/12 10:46:15;;;;;;;11.98;6.43;;;;;;;3.07;76.46;100698.94;5047494;28;20028;-66
2022/01/12 10:48:52;;;;;;;13.93;6.13;;;;;;;2.91;77.29;100683.50;5046822;28;20025;-66
2022/01/12 10:51:20;;;;;;;13.93;6.50;;;;;;;2.73;76.96;100686.19;5046761;28;20045;-66
2022/01/12 10:53:51;;;;;;;14.48;6.63;;;;;;;2.89;77.37;100691.25;5046645;28;20021;-66
2022/01/12 10:56:18;;;;;;;13.45;5.60;;;;;;;2.84;77.89;100697.94;5046603;28;20025;-66
2022/01/12 10:58:46;;;;;;;9.20;5.03;;;;;;;3.00;77.45;100695.19;5046597;28;20029;-66
2022/01/12 11:01:13;;;;;;;13.05;6.40;;;;;;;3.09;75.86;100685.19;5046499;28;20033;-66
2022/01/12 11:03:39;;;;;;;21.55;7.57;;;;;;;3.12;76.36;100677.50;5046426;28;20248;-66
2022/01/12 11:06:07;;;;;;;12.70;6.60;;;;;;;2.94;76.32;100663.69;5046293;28;20025;-66
2022/01/12 11:08:34;;;;;;;12.70;5.90;;;;;;;2.93;77.09;100656.72;5046406;28;20046;-66
2022/01/12 11:11:00;;;;;;;13.55;6.32;;;;;;;2.99;76.47;100654.41;5046337;28;20256;-66
2022/01/12 11:13:27;;;;;;;13.15;5.95;;;;;;;3.20;75.41;100657.88;5046253;28;20214;-66
2022/01/12 11:15:53;;;;;;;16.13;6.30;;;;;;;3.22;75.42;100661.44;5046218;28;20029;-66
2022/01/12 11:18:22;;;;;;;11.18;5.93;;;;;;;3.40;74.67;100666.53;5030890;28;20026;-67
2022/01/12 11:20:51;;;;;;;16.85;5.43;;;;;;;3.61;73.57;100673.47;5015334;28;20026;-66
2022/01/12 11:23:19;;;;;;;11.32;5.38;;;;;;;3.68;73.20;100667.72;5017803;28;20022;-66
2022/01/12 11:25:55;;;;;;;9.68;4.95;;;;;;;3.48;74.05;100675.56;5015329;28;20046;-66
2022/01/12 11:28:37;;;;;;;11.23;5.68;;;;;;;3.61;75.12;100672.63;5017943;28;20089;-66
2022/01/12 11:31:04;;;;;;;15.95;5.65;;;;;;;3.60;73.82;100656.09;5021671;28;20257;-66
2022/01/12 11:33:29;;;;;;;17.55;7.57;;;;;;;3.52;75.17;100664.44;5024864;28;20340;-66
2022/01/12 11:36:00;;;;;;;19.10;9.20;;;;;;;3.37;75.49;100662.09;5030116;28;20014;-66
2022/01/12 11:38:31;;;;;;;12.02;5.95;;;;;;;3.35;74.89;100655.06;5040005;28;20305;-66
2022/01/12 11:41:28;;;;;;;16.42;7.43;;;;;;;3.48;75.06;100654.72;5026400;28;20022;-66
2022/01/12 11:44:05;;;;;;;15.35;7.43;;;;;;;3.53;74.04;100659.28;5027845;28;20048;-66
2022/01/12 11:46:52;;;;;;;19.35;8.98;;;;;;;3.81;74.06;100656.97;5010459;28;20030;-66
2022/01/12 11:49:29;;;;;;;15.75;8.18;;;;;;;3.85;73.53;100665.75;5005320;28;20022;-66
2022/01/12 11:51:56;;;;;;;17.15;7.32;;;;;;;3.89;72.70;100655.53;5018271;28;20021;-66
2022/01/12 11:54:30;;;;;;;15.00;6.88;;;;;;;4.17;73.21;100650.56;5024766;28;20076;-66
2022/01/12 11:56:58;;;;;;;15.20;6.22;;;;;;;4.30;73.28;100654.50;5024571;28;20021;-66
2022/01/12 11:59:28;;;;;;;14.75;6.05;;;;;;;4.22;74.13;100662.06;5024157;28;20053;-66
2022/01/12 12:02:12;;;;;;;13.82;6.75;;;;;;;4.36;73.37;100658.22;5024906;28;20022;-66
2022/01/12 12:04:38;;;;;;;12.98;6.18;;;;;;;4.26;74.25;100663.94;5021898;28;20064;-66
2022/01/12 12:07:14;;;;;;;14.30;6.30;;;;;;;4.33;72.91;100665.03;5015626;28;20280;-66
2022/01/12 12:09:44;;;;;;;11.40;6.15;;;;;;;4.29;73.11;100658.84;5015193;28;20085;-66
2022/01/12 12:12:15;;;;;;;15.52;6.57;;;;;;;4.26;72.89;100657.81;5013415;28;20325;-66
2022/01/12 12:14:43;;;;;;;14.23;6.15;;;;;;;4.29;73.36;100653.63;5013181;28;20198;-66
2022/01/12 12:17:08;;;;;;;11.32;5.80;;;;;;;4.29;73.96;100658.84;5014292;28;20022;-66
2022/01/12 12:19:37;;;;;;;23.88;7.07;;;;;;;4.19;73.47;100648.91;5015169;28;20073;-66
2022/01/12 12:22:32;;;;;;;17.90;8.35;;;;;;;4.29;73.89;100650.13;5015435;28;20067;-66
2022/01/12 12:25:07;;;;;;;11.52;6.10;;;;;;;4.28;74.16;100636.19;5003343;28;20034;-66
2022/01/12 12:27:34;;;;;;;14.07;6.57;;;;;;;4.16;73.42;100624.44;5004430;28;20046;-66
2022/01/12 12:30:01;;;;;;;17.00;6.85;;;;;;;3.99;73.22;100623.78;5004475;28;20085;-66
2022/01/12 12:32:44;;;;;;;17.20;6.68;;;;;;;4.10;73.44;100632.91;5004463;28;20393;-66
2022/01/12 12:35:31;;;;;;;18.75;8.18;;;;;;;3.96;73.19;100626.28;5004996;28;20022;-66